Time;durP1;ratioP1;P1;durP2;ratioP2;P2;SDS_P1;SDS_P2;PMS_P1;PMS_P2;Temp;Humidity;BMP_temperature;BMP_pressure;BME280_temperature;BME280_humidity;BME280_pressure;Samples;Min_cycle;Max_cycle;Signal;HPM_P1;HPM_P2
2022/12/09 07:52:25;;;;;;;11.45;7.28;;;;;;;-1.19;100.00;99807.19;6136848;23;20025;-95
2022/12/09 07:55:55;;;;;;;;;;;;;;;;;;;;;
2022/12/09 07:59:17;;;;;;;;;;;;;;;;;;;;;
2022/12/09 08:02:04;;;;;;;;;;;;;;;;;;;;;
2022/12/09 08:04:39;;;;;;;7.07;4.60;;;;;;;-0.94;100.00;99805.00;6134563;23;20078;-95
2022/12/09 08:07:31;;;;;;;9.23;4.93;;;;;;;-0.74;100.00;99847.66;6106724;23;20485;-96
2022/12/09 08:09:57;;;;;;;6.25;4.55;;;;;;;-0.91;100.00;99827.72;6108499;23;20013;-95
2022/12/09 08:12:36;;;;;;;9.52;5.50;;;;;;;-0.99;100.00;99811.88;6112682;23;20010;-96
2022/12/09 08:15:02;;;;;;;10.68;5.95;;;;;;;-0.97;100.00;99830.41;6087122;23;20006;-94
2022/12/09 08:17:29;;;;;;;8.93;6.20;;;;;;;-0.86;100.00;99841.97;6099461;23;20343;-93
2022/12/09 08:19:55;;;;;;;9.73;7.05;;;;;;;-0.89;100.00;99829.38;6098903;23;20009;-95
2022/12/09 08:22:22;;;;;;;12.25;7.47;;;;;;;-0.93;100.00;99825.22;6124615;23;20033;-95
2022/12/09 08:24:47;;;;;;;13.13;7.30;;;;;;;-0.90;100.00;99825.19;6123977;23;20012;-93
2022/12/09 08:27:13;;;;;;;19.40;11.98;;;;;;;-0.94;100.00;99840.47;6124955;23;20006;-94
2022/12/09 08:29:38;;;;;;;19.17;11.93;;;;;;;-0.77;100.00;99858.69;6100228;23;20006;-93
2022/12/09 08:32:04;;;;;;;18.90;10.98;;;;;;;-0.60;100.00;99847.38;6099357;23;20018;-93
2022/12/09 08:34:29;;;;;;;17.80;9.32;;;;;;;-0.72;100.00;99821.41;6127066;23;20013;-95
2022/12/09 08:36:55;;;;;;;14.63;9.75;;;;;;;-0.58;100.00;99849.00;6103729;23;20002;-94
2022/12/09 08:39:20;;;;;;;13.68;9.00;;;;;;;-0.53;100.00;99849.75;6101170;23;20012;-93
2022/12/09 08:41:46;;;;;;;14.60;9.13;;;;;;;-0.56;100.00;99854.88;6124423;23;20053;-93
2022/12/09 08:44:14;;;;;;;11.60;8.30;;;;;;;-0.65;100.00;99855.06;6100418;23;20010;-94
2022/12/09 08:46:42;;;;;;;14.48;9.18;;;;;;;-0.68;100.00;99865.28;6100162;23;20328;-93
2022/12/09 08:49:09;;;;;;;13.77;8.52;;;;;;;-0.90;100.00;99855.56;6124949;23;20014;-94
2022/12/09 08:51:34;;;;;;;17.67;8.57;;;;;;;-1.18;100.00;99835.00;6101464;23;20462;-93
2022/12/09 08:54:01;;;;;;;11.07;7.80;;;;;;;-1.45;100.00;99818.63;6125277;23;20093;-94
2022/12/09 08:56:27;;;;;;;12.90;7.70;;;;;;;-1.43;100.00;99839.69;6101478;23;20328;-93
2022/12/09 08:58:53;;;;;;;11.48;8.02;;;;;;;-1.69;100.00;99808.97;6101111;23;20097;-94
2022/12/09 09:01:30;;;;;;;12.07;7.40;;;;;;;-1.73;100.00;99821.66;6126682;23;20009;-93
2022/12/09 09:03:57;;;;;;;10.70;7.07;;;;;;;-1.89;100.00;99815.19;6101352;23;20036;-94
2022/12/09 09:06:23;;;;;;;12.15;6.80;;;;;;;-2.00;100.00;99812.00;6100204;23;20006;-94
2022/12/09 09:08:48;;;;;;;13.80;7.40;;;;;;;-2.10;100.00;99811.28;6098849;23;20033;-92
2022/12/09 12:20:02;;;;;;;12.30;8.10;;;;;;;10.87;48.05;99799.50;6130983;23;20025;-95
2022/12/09 12:22:40;;;;;;;13.35;8.07;;;;;;;11.20;46.94;99810.22;6128186;23;20017;-93
2022/12/09 12:25:24;;;;;;;13.07;8.27;;;;;;;11.40;46.71;99807.03;6110400;23;20132;-93
2022/12/09 12:28:14;;;;;;;14.38;8.93;;;;;;;10.93;47.88;99803.44;6154359;23;20005;-94
2022/12/09 12:35:03;;;;;;;13.20;8.25;;;;;;;10.65;48.38;99791.59;6134282;23;20013;-95
2022/12/09 12:40:53;;;;;;;13.23;8.38;;;;;;;9.97;50.23;99823.59;6173307;23;20021;-95
2022/12/09 12:46:29;;;;;;;11.98;7.68;;;;;;;9.95;50.50;99790.19;6191967;23;20573;-94
2022/12/09 12:49:26;;;;;;;10.73;7.47;;;;;;;9.95;50.36;99818.56;6165299;23;20008;-95
2022/12/09 12:51:54;;;;;;;12.98;7.40;;;;;;;8.95;52.83;99816.25;6163356;23;20005;-95
2022/12/09 12:54:38;;;;;;;12.07;7.45;;;;;;;7.66;56.33;99816.78;6164617;23;20063;-95
2022/12/09 12:57:34;;;;;;;9.85;7.40;;;;;;;6.84;59.73;99806.66;6164691;23;20001;-96
2022/12/09 13:00:19;;;;;;;11.30;7.35;;;;;;;5.98;63.29;99810.97;6163021;23;20076;-94
2022/12/09 13:02:55;;;;;;;12.35;6.90;;;;;;;5.55;64.86;99803.56;6167232;23;20009;-94
2022/12/09 13:05:30;;;;;;;10.68;7.38;;;;;;;4.76;67.86;99785.00;6164717;23;20330;-94
2022/12/09 13:08:18;;;;;;;12.98;8.02;;;;;;;4.72;68.68;99791.97;6164421;23;20059;-94
2022/12/09 13:10:49;;;;;;;12.68;7.38;;;;;;;4.38;70.00;99782.34;6185995;23;20083;-92
2022/12/09 13:13:52;;;;;;;21.70;8.57;;;;;;;3.95;72.13;99798.63;6161829;23;20016;-93
2022/12/09 13:16:47;;;;;;;9.27;6.45;;;;;;;3.65;71.99;99765.78;6016384;23;20046;-95
2022/12/09 13:19:51;;;;;;;11.32;6.80;;;;;;;3.49;73.38;99759.63;6190259;23;20005;-95
2022/12/09 13:22:29;;;;;;;15.80;6.00;;;;;;;3.50;73.22;99797.00;6115674;23;20062;-96
2022/12/09 13:25:09;;;;;;;9.98;5.07;;;;;;;3.30;73.49;99775.66;6165573;23;20005;-96
2022/12/09 13:27:59;;;;;;;9.75;5.45;;;;;;;3.38;74.15;99800.84;6164837;23;20020;-96
2022/12/09 13:33:58;;;;;;;10.68;5.65;;;;;;;2.92;76.02;99760.06;6136616;23;20010;-95
2022/12/09 13:36:41;;;;;;;10.27;6.05;;;;;;;3.05;76.11;99787.63;6137236;23;20101;-95
2022/12/09 13:39:39;;;;;;;16.42;6.80;;;;;;;2.77;76.67;99756.34;6164121;23;20013;-95
2022/12/09 13:45:17;;;;;;;8.38;5.75;;;;;;;2.51;78.12;99754.75;6181067;23;20087;-94
2022/12/09 13:47:43;;;;;;;8.20;5.03;;;;;;;2.48;78.68;99769.31;6166048;23;20001;-93
2022/12/09 13:50:26;;;;;;;6.45;5.18;;;;;;;2.50;79.01;99793.84;6163051;23;20012;-93
2022/12/09 13:52:55;;;;;;;14.20;4.93;;;;;;;2.28;79.63;99775.09;6162639;23;20005;-95
2022/12/09 13:55:29;;;;;;;7.78;4.15;;;;;;;2.48;79.33;99800.69;6160933;23;20432;-94
2022/12/09 13:58:09;;;;;;;10.63;4.15;;;;;;;2.47;79.37;99801.59;6160596;23;20016;-96
2022/12/09 14:00:36;;;;;;;12.88;5.32;;;;;;;2.21;80.43;99771.09;6184373;23;20012;-94
2022/12/09 14:03:20;;;;;;;11.82;5.15;;;;;;;2.25;80.26;99781.13;6160396;23;20053;-94
2022/12/09 14:05:46;;;;;;;12.35;5.45;;;;;;;2.00;80.88;99773.47;6161139;23;20012;-93
2022/12/09 14:08:23;;;;;;;8.15;5.35;;;;;;;1.94;81.90;99768.56;6185946;23;20031;-95
2022/12/09 14:10:49;;;;;;;11.60;5.40;;;;;;;1.95;82.87;99780.41;6188627;23;20004;-94
2022/12/09 14:13:34;;;;;;;12.52;5.60;;;;;;;1.94;83.39;99773.66;6162210;23;20033;-94
2022/12/09 14:16:27;;;;;;;7.82;4.95;;;;;;;2.02;82.98;99794.59;6187345;23;20095;-94
2022/12/09 14:18:54;;;;;;;8.80;3.85;;;;;;;1.76;84.60;99775.09;6187825;23;20470;-93
2022/12/09 14:21:23;;;;;;;8.95;4.15;;;;;;;1.53;83.96;99747.81;6163189;23;20447;-94
2022/12/09 14:24:07;;;;;;;13.50;5.82;;;;;;;1.71;84.80;99793.03;6188252;23;20012;-94
2022/12/09 14:26:35;;;;;;;12.82;6.95;;;;;;;1.67;85.30;99793.19;6162951;23;20454;-94
2022/12/09 14:29:01;;;;;;;10.90;6.28;;;;;;;1.48;85.39;99745.41;6163646;23;20087;-95
2022/12/09 14:32:05;;;;;;;11.63;5.95;;;;;;;1.64;86.01;99790.75;6163110;23;20028;-95
2022/12/09 14:34:37;;;;;;;11.00;5.75;;;;;;;1.64;86.05;99796.66;6161598;23;20443;-94
2022/12/09 14:37:28;;;;;;;10.52;5.85;;;;;;;1.53;86.24;99796.16;6165204;23;20032;-96
2022/12/09 14:42:53;;;;;;;15.70;7.15;;;;;;;1.37;87.12;99787.34;6136364;23;20022;-96
2022/12/09 14:46:06;;;;;;;;;;;;;;;;;;;;;
2022/12/09 14:48:36;;;;;;;13.32;6.95;;;;;;;0.91;88.60;99763.28;6145283;23;20037;-93
2022/12/09 14:51:14;;;;;;;15.40;6.53;;;;;;;0.80;89.91;99777.09;6130292;23;20467;-94
2022/12/09 14:53:41;;;;;;;8.40;6.13;;;;;;;0.62;90.71;99772.53;6133858;23;20005;-93
2022/12/09 14:56:06;;;;;;;15.75;8.38;;;;;;;0.42;90.98;99745.97;6134413;23;20432;-93
2022/12/09 14:58:33;;;;;;;11.30;6.47;;;;;;;0.66;91.53;99794.44;6134739;23;20037;-96
2022/12/09 15:01:01;;;;;;;10.73;5.30;;;;;;;0.33;92.07;99751.28;6133505;23;20080;-93
2022/12/09 15:03:27;;;;;;;11.25;6.13;;;;;;;0.38;92.61;99776.56;6134228;23;20364;-93
2022/12/09 15:06:04;;;;;;;10.32;5.57;;;;;;;0.24;93.60;99781.16;6132911;23;20465;-94
2022/12/09 15:08:35;;;;;;;13.02;6.43;;;;;;;-0.04;94.35;99764.09;6135022;23;20008;-93
2022/12/09 15:11:10;;;;;;;15.50;7.80;;;;;;;-0.11;94.78;99765.94;6136273;23;20005;-95
2022/12/09 15:13:39;;;;;;;20.45;9.80;;;;;;;-0.12;96.27;99798.94;6160618;23;20009;-94
2022/12/09 15:16:11;;;;;;;14.80;7.40;;;;;;;-0.22;95.50;99775.50;6136083;23;20002;-95
2022/12/09 15:18:39;;;;;;;17.45;6.60;;;;;;;-0.32;96.09;99789.28;6137092;23;20001;-96
2022/12/09 15:21:05;;;;;;;17.83;8.00;;;;;;;-0.53;96.86;99783.00;6135397;23;19997;-96
2022/12/09 15:23:33;;;;;;;11.10;6.68;;;;;;;-0.46;97.75;99820.88;6136185;23;20008;-95
2022/12/09 15:26:03;;;;;;;11.07;6.25;;;;;;;-0.67;97.87;99813.72;6160644;23;20009;-96
2022/12/09 15:28:32;;;;;;;14.70;7.03;;;;;;;-0.84;98.54;99798.03;6137605;23;20002;-95
2022/12/09 15:31:13;;;;;;;14.38;7.72;;;;;;;-1.01;99.48;99796.69;6136385;23;20060;-95
2022/12/09 15:33:41;;;;;;;18.40;7.72;;;;;;;-1.20;99.90;99795.38;6135702;23;20005;-96
2022/12/09 15:36:07;;;;;;;15.43;7.88;;;;;;;-1.17;100.00;99829.09;6135058;23;20024;-96
2022/12/09 15:38:41;;;;;;;12.80;6.18;;;;;;;-1.57;100.00;99786.78;6135305;23;20009;-95
2022/12/09 15:44:00;;;;;;;8.38;5.32;;;;;;;-1.56;100.00;99817.97;6161039;23;20072;-96
2022/12/09 15:46:26;;;;;;;10.43;5.57;;;;;;;-1.77;100.00;99806.56;6136546;23;20515;-93
2022/12/09 15:48:57;;;;;;;7.68;4.85;;;;;;;-1.77;100.00;99825.09;6131555;23;20013;-94
2022/12/09 15:51:25;;;;;;;9.80;4.80;;;;;;;-2.01;100.00;99805.28;6125702;23;20010;-96
2022/12/09 15:54:08;;;;;;;10.18;5.15;;;;;;;-1.98;100.00;99830.50;6132311;23;20009;-94
2022/12/09 15:59:57;;;;;;;11.77;5.33;;;;;;;-2.35;100.00;99823.47;6159890;23;20024;-93
2022/12/09 16:02:30;;;;;;;16.23;5.10;;;;;;;-2.49;100.00;99820.31;6132734;23;20175;-94
2022/12/09 16:05:26;;;;;;;10.48;5.75;;;;;;;-2.73;100.00;99794.56;6133408;23;20009;-96
2022/12/09 16:08:46;;;;;;;13.38;6.00;;;;;;;-2.67;100.00;99798.69;6143423;23;20005;-96
2022/12/09 16:18:32;;;;;;;14.63;7.47;;;;;;;-2.55;100.00;99833.88;6043347;23;20054;-94
2022/12/09 16:21:37;;;;;;;14.63;7.05;;;;;;;-2.60;100.00;99831.41;6068753;23;20015;-96
2022/12/09 16:45:39;;;;;;;14.88;6.78;;;;;;;-3.32;100.00;99819.66;6144676;23;19916;-94
2022/12/09 16:48:08;;;;;;;14.38;8.15;;;;;;;-3.24;100.00;99819.59;6134074;23;20005;-93
2022/12/09 16:50:53;;;;;;;20.92;8.88;;;;;;;-3.20;100.00;99827.94;6134580;23;20009;-92
2022/12/09 16:53:29;;;;;;;16.65;9.07;;;;;;;-3.49;100.00;99797.16;6157259;23;20075;-95
2022/12/09 17:01:54;;;;;;;13.68;7.68;;;;;;;-3.63;100.00;99798.13;6042469;23;20044;-96
2022/12/09 17:04:38;;;;;;;13.40;7.22;;;;;;;-3.66;100.00;99819.16;6016366;23;20007;-95
